createdAt,value
2023-01-08T00:01:39.702Z,100440.72
2023-01-08T00:04:08.183Z,100465.31
2023-01-08T00:06:38.405Z,100424.88
2023-01-08T00:09:06.948Z,100451.00
2023-01-08T00:11:35.234Z,100457.94
2023-01-08T00:14:03.820Z,100407.16
2023-01-08T00:16:32.748Z,100417.81
2023-01-08T00:19:01.181Z,100402.13
2023-01-08T00:21:30.178Z,100444.16
2023-01-08T00:23:59.961Z,100445.84
2023-01-08T00:26:28.332Z,100402.97
2023-01-08T00:28:57.391Z,100433.72
2023-01-08T00:31:25.758Z,100430.97
2023-01-08T00:33:54.206Z,100412.59
2023-01-08T00:36:22.619Z,100391.59
2023-01-08T00:38:51.031Z,100364.28
2023-01-08T00:41:20.756Z,100394.84
2023-01-08T00:43:49.129Z,100434.16
2023-01-08T00:46:17.528Z,100434.78
2023-01-08T00:48:46.263Z,100355.53
2023-01-08T00:51:15.168Z,100416.16
2023-01-08T00:53:43.977Z,100411.66
2023-01-08T00:56:13.069Z,100423.00
2023-01-08T00:58:42.887Z,100382.75
2023-01-08T01:01:13.461Z,100388.09
2023-01-08T01:03:42.770Z,100403.25
2023-01-08T01:06:13.650Z,100386.69
2023-01-08T01:08:44.239Z,100364.78
2023-01-08T01:11:18.992Z,100401.41
2023-01-08T01:13:49.309Z,100345.03
2023-01-08T01:16:18.515Z,100391.41
2023-01-08T01:18:46.975Z,100368.59
2023-01-08T01:21:25.339Z,100402.94
2023-01-08T01:23:56.150Z,100347.81
2023-01-08T01:26:25.896Z,100362.69
2023-01-08T01:28:57.979Z,100382.03
2023-01-08T01:31:30.165Z,100368.06
2023-01-08T01:33:58.999Z,100404.16
2023-01-08T01:36:28.442Z,100398.09
2023-01-08T01:38:59.406Z,100352.56
2023-01-08T01:41:31.753Z,100397.31
2023-01-08T01:44:36.363Z,100416.44
2023-01-08T01:47:11.989Z,100411.22
2023-01-08T01:49:42.763Z,100399.06
2023-01-08T01:52:12.966Z,100399.94
2023-01-08T01:54:41.388Z,100334.44
2023-01-08T01:57:11.901Z,100394.97
2023-01-08T01:59:43.031Z,100402.84
2023-01-08T02:02:11.500Z,100392.16
2023-01-08T02:04:40.078Z,100359.06
2023-01-08T02:07:15.996Z,100395.03
2023-01-08T02:09:51.372Z,100399.38
2023-01-08T02:12:31.658Z,100390.66
2023-01-08T02:15:14.472Z,100357.47
2023-01-08T02:17:50.632Z,100379.44
2023-01-08T02:20:27.759Z,100389.06
2023-01-08T02:23:12.422Z,100386.50
2023-01-08T02:26:09.994Z,100375.97
2023-01-08T02:28:43.900Z,100344.53
2023-01-08T02:31:14.233Z,100369.06
2023-01-08T02:33:42.877Z,100369.06
2023-01-08T02:36:36.897Z,100332.94
2023-01-08T02:39:31.741Z,100344.41
2023-01-08T02:42:12.124Z,100359.13
2023-01-08T02:44:56.798Z,100317.13
2023-01-08T02:47:33.095Z,100344.03
2023-01-08T02:50:14.792Z,100323.84
2023-01-08T02:52:56.695Z,100356.31
2023-01-08T02:55:27.268Z,100336.16
2023-01-08T02:57:57.734Z,100352.84
2023-01-08T03:00:27.053Z,100357.94
2023-01-08T03:03:08.980Z,100356.91
2023-01-08T03:05:39.085Z,100344.66
2023-01-08T03:08:07.725Z,100305.06
2023-01-08T03:10:40.145Z,100302.59
2023-01-08T03:13:17.179Z,100343.66
2023-01-08T03:15:52.739Z,100341.06
2023-01-08T03:18:28.982Z,100262.28
2023-01-08T03:20:57.772Z,100313.31
2023-01-08T03:23:27.834Z,100288.72
2023-01-08T03:25:56.245Z,100281.50
2023-01-08T03:28:32.885Z,100298.88
2023-01-08T03:31:02.879Z,100335.00
2023-01-08T03:33:32.980Z,100320.88
2023-01-08T03:36:05.393Z,100314.84
2023-01-08T03:38:39.157Z,100314.09
2023-01-08T03:41:12.080Z,100323.75
2023-01-08T03:43:42.127Z,100314.22
2023-01-08T03:46:17.770Z,100299.19
2023-01-08T03:48:47.228Z,100335.53
2023-01-08T03:51:15.807Z,100273.25
2023-01-08T03:53:44.355Z,100329.31
2023-01-08T03:56:12.682Z,100313.56
2023-01-08T03:58:42.418Z,100307.53
2023-01-08T04:01:11.005Z,100311.94
2023-01-08T04:03:39.451Z,100314.44
2023-01-08T04:06:08.412Z,100326.88
2023-01-08T04:08:36.845Z,100318.03
2023-01-08T04:11:05.279Z,100325.00
2023-01-08T04:13:33.654Z,100320.56
2023-01-08T04:16:03.457Z,100283.06
2023-01-08T04:18:32.118Z,100232.41
2023-01-08T04:21:00.586Z,100312.66
2023-01-08T04:23:29.025Z,100297.78
2023-01-08T04:25:57.469Z,100327.59
2023-01-08T04:28:26.014Z,100304.56
2023-01-08T04:30:54.437Z,100316.78
2023-01-08T04:33:25.464Z,100338.84
2023-01-08T04:35:53.817Z,100318.78
2023-01-08T04:38:22.354Z,100278.44
2023-01-08T04:40:50.689Z,100319.09
2023-01-08T04:43:19.127Z,100311.41
2023-01-08T04:45:47.436Z,100308.91
2023-01-08T04:48:15.929Z,100307.19
2023-01-08T04:50:45.636Z,100315.72
2023-01-08T04:53:14.038Z,100314.03
2023-01-08T04:55:42.445Z,100217.88
2023-01-08T04:58:10.949Z,100295.75
2023-01-08T05:00:41.187Z,100264.97
2023-01-08T05:03:09.725Z,100298.28
2023-01-08T05:05:39.255Z,100211.44
2023-01-08T05:08:09.028Z,100217.63
2023-01-08T05:10:37.476Z,100277.91
2023-01-08T05:13:05.886Z,100294.50
2023-01-08T05:15:34.253Z,100238.50
2023-01-08T05:18:04.994Z,100212.03
2023-01-08T05:20:34.691Z,100256.78
2023-01-08T05:23:03.388Z,100261.88
2023-01-08T05:25:33.198Z,100295.88
2023-01-08T05:28:02.947Z,100216.16
2023-01-08T05:30:31.300Z,100248.44
2023-01-08T05:32:59.753Z,100265.88
2023-01-08T05:35:28.144Z,100285.06
2023-01-08T05:37:56.544Z,100189.63
2023-01-08T05:40:24.911Z,100289.38
2023-01-08T05:42:54.639Z,100292.00
2023-01-08T05:45:22.999Z,100291.03
2023-01-08T05:47:51.356Z,100296.19
2023-01-08T05:50:19.939Z,100282.94
2023-01-08T05:52:48.296Z,100278.59
2023-01-08T05:55:17.419Z,100294.25
2023-01-08T05:57:46.282Z,100294.22
2023-01-08T06:00:17.772Z,100263.50
2023-01-08T06:02:48.801Z,100226.47
2023-01-08T06:05:17.541Z,100306.91
2023-01-08T06:07:46.020Z,100260.41
2023-01-08T06:10:14.546Z,100302.47
2023-01-08T06:12:43.115Z,100291.03
2023-01-08T06:15:13.069Z,100238.31
2023-01-08T06:17:43.340Z,100282.06
2023-01-08T06:20:13.382Z,100321.38
2023-01-08T06:22:41.753Z,100303.78
2023-01-08T06:25:10.817Z,100247.78
2023-01-08T06:27:40.630Z,100263.00
2023-01-08T06:30:10.752Z,100290.00
2023-01-08T06:32:39.112Z,100307.47
2023-01-08T06:35:10.260Z,100281.72
2023-01-08T06:37:38.889Z,100289.69
2023-01-08T06:40:08.822Z,100298.22
2023-01-08T06:42:37.175Z,100320.09
2023-01-08T06:45:08.575Z,100326.16
2023-01-08T06:47:37.135Z,100335.81
2023-01-08T06:50:08.312Z,100327.13
2023-01-08T06:52:36.755Z,100284.88
2023-01-08T06:55:06.120Z,100300.63
2023-01-08T06:57:34.548Z,100312.25
2023-01-08T07:00:02.922Z,100326.22
2023-01-08T07:02:31.377Z,100281.41
2023-01-08T07:04:59.815Z,100316.31
2023-01-08T07:07:29.596Z,100279.47
2023-01-08T07:09:57.964Z,100311.06
2023-01-08T07:12:26.670Z,100285.75
2023-01-08T07:14:55.112Z,100306.84
2023-01-08T07:17:23.461Z,100305.94
2023-01-08T07:19:51.792Z,100280.44
2023-01-08T07:22:21.129Z,100296.06
2023-01-08T07:24:50.949Z,100285.63
2023-01-08T07:27:19.380Z,100299.81
2023-01-08T07:29:47.802Z,100303.41
2023-01-08T07:32:16.230Z,100309.19
2023-01-08T07:34:44.633Z,100304.50
2023-01-08T07:37:13.115Z,100314.97
2023-01-08T07:39:41.456Z,100329.06
2023-01-08T07:42:11.356Z,100307.84
2023-01-08T07:44:39.839Z,100285.03
2023-01-08T07:47:08.282Z,100322.81
2023-01-08T07:49:36.829Z,100317.56
2023-01-08T07:52:05.563Z,100267.78
2023-01-08T07:54:33.951Z,100225.66
2023-01-08T07:57:02.328Z,100275.78
2023-01-08T07:59:32.194Z,100265.78
2023-01-08T08:02:00.758Z,100266.63
2023-01-08T08:04:29.222Z,100311.34
2023-01-08T08:06:57.874Z,100278.88
2023-01-08T08:09:26.222Z,100273.16
2023-01-08T08:11:54.595Z,100220.75
2023-01-08T08:14:23.078Z,100297.25
2023-01-08T08:16:53.130Z,100254.31
2023-01-08T08:19:21.579Z,100254.41
2023-01-08T08:21:49.992Z,100276.28
2023-01-08T08:24:18.447Z,100232.47
2023-01-08T08:26:46.908Z,100274.50
2023-01-08T08:29:15.677Z,100218.22
2023-01-08T08:31:44.176Z,100264.69
2023-01-08T08:34:14.011Z,100270.06
2023-01-08T08:36:42.414Z,100211.41
2023-01-08T08:39:10.800Z,100264.03
2023-01-08T08:41:39.227Z,100262.25
2023-01-08T08:44:08.317Z,100257.00
2023-01-08T08:46:37.033Z,100248.25
2023-01-08T08:49:05.507Z,100212.16
2023-01-08T08:51:35.540Z,100253.34
2023-01-08T08:54:03.991Z,100259.09
2023-01-08T08:56:32.426Z,100205.78
2023-01-08T08:59:00.817Z,100220.94
2023-01-08T09:01:29.295Z,100255.03
2023-01-08T09:03:58.158Z,100247.34
2023-01-08T09:06:27.775Z,100200.88
2023-01-08T09:08:57.582Z,100202.69
2023-01-08T09:11:26.137Z,100232.31
2023-01-08T09:13:54.595Z,100237.75
2023-01-08T09:16:23.043Z,100202.13
2023-01-08T09:18:51.480Z,100192.75
2023-01-08T09:21:19.824Z,100250.84
2023-01-08T09:23:50.102Z,100250.03
2023-01-08T09:26:19.849Z,100156.38
2023-01-08T09:28:48.304Z,100253.03
2023-01-08T09:31:16.723Z,100202.06
2023-01-08T09:33:45.308Z,100208.53
2023-01-08T09:36:13.674Z,100231.56
2023-01-08T09:38:43.116Z,100235.09
2023-01-08T09:41:17.874Z,100197.44
2023-01-08T09:43:52.797Z,100237.22
2023-01-08T09:46:25.800Z,100216.25
2023-01-08T09:48:57.905Z,100224.09
2023-01-08T09:51:34.969Z,100195.41
2023-01-08T09:54:04.470Z,100198.06
2023-01-08T09:56:36.200Z,100231.34
2023-01-08T09:59:07.001Z,100214.72
2023-01-08T10:01:39.962Z,100174.44
2023-01-08T10:04:15.941Z,100204.41
2023-01-08T10:06:53.092Z,100234.28
2023-01-08T10:09:29.933Z,100207.28
2023-01-08T10:12:03.901Z,100221.16
2023-01-08T10:14:38.744Z,100173.88
2023-01-08T10:17:17.405Z,100191.69
2023-01-08T10:19:46.699Z,100210.22
2023-01-08T10:22:19.666Z,100160.44
2023-01-08T10:24:48.327Z,100167.34
2023-01-08T10:27:20.223Z,100185.09
2023-01-08T10:29:51.846Z,100191.38
2023-01-08T10:32:26.875Z,100148.56
2023-01-08T10:34:58.551Z,100013.81
2023-01-08T10:37:30.588Z,100175.84
2023-01-08T10:40:08.925Z,100113.66
2023-01-08T10:42:38.707Z,100183.72
2023-01-08T10:45:19.788Z,100178.47
2023-01-08T10:47:50.694Z,100127.81
2023-01-08T10:50:24.394Z,100142.00
2023-01-08T10:52:58.449Z,100136.81
2023-01-08T10:55:31.519Z,100164.94
2023-01-08T10:58:02.750Z,100151.84
2023-01-08T11:00:35.544Z,100133.56
2023-01-08T11:03:08.779Z,100101.06
2023-01-08T11:05:39.670Z,100147.69
2023-01-08T11:08:15.824Z,100138.13
2023-01-08T11:10:45.007Z,100110.97
2023-01-08T11:13:20.772Z,100127.84
2023-01-08T11:16:04.534Z,100099.91
2023-01-08T11:18:37.727Z,100082.31
2023-01-08T11:21:19.526Z,100127.97
2023-01-08T11:23:48.310Z,100125.47
2023-01-08T11:26:22.610Z,100071.50
2023-01-08T11:28:59.535Z,100076.78
2023-01-08T11:31:39.819Z,100037.59
2023-01-08T11:34:17.147Z,100082.13
2023-01-08T11:36:53.364Z,100083.00
2023-01-08T11:39:21.785Z,100074.31
2023-01-08T11:42:11.770Z,100067.34
2023-01-08T11:44:50.064Z,100075.19
2023-01-08T11:47:29.500Z,100044.69
2023-01-08T11:50:25.866Z,100026.28
2023-01-08T11:53:11.397Z,100014.09
2023-01-08T11:55:55.188Z,100010.59
2023-01-08T11:58:35.260Z,100053.41
2023-01-08T12:01:28.794Z,100045.59
2023-01-08T12:04:22.879Z,100043.84
2023-01-08T12:07:00.133Z,99996.72
2023-01-08T12:09:39.748Z,100035.16
2023-01-08T12:12:25.893Z,100031.66
2023-01-08T12:15:08.569Z,100026.44
2023-01-08T12:18:06.129Z,100022.06
2023-01-08T12:20:40.831Z,100026.41
2023-01-08T12:23:40.900Z,100015.88
2023-01-08T12:26:20.344Z,100011.47
2023-01-08T12:29:27.415Z,99999.31
2023-01-08T12:32:28.036Z,99969.63
2023-01-08T12:35:03.776Z,99995.66
2023-01-08T12:37:47.022Z,99954.69
2023-01-08T12:40:21.763Z,99962.56
2023-01-08T12:43:00.465Z,99985.16
2023-01-08T12:45:33.992Z,99916.28
2023-01-08T12:48:09.532Z,99971.03
2023-01-08T12:50:50.576Z,99940.59
2023-01-08T12:53:32.675Z,99965.00
2023-01-08T12:56:10.023Z,99912.69
2023-01-08T12:59:06.904Z,99940.47
2023-01-08T13:01:44.964Z,99876.91
2023-01-08T13:04:14.615Z,99917.75
2023-01-08T13:06:52.985Z,99932.50
2023-01-08T13:09:27.741Z,99924.78
2023-01-08T13:11:59.596Z,99946.59
2023-01-08T13:14:28.721Z,99901.31
2023-01-08T13:17:06.360Z,99901.31
2023-01-08T13:19:43.342Z,99897.13
2023-01-08T13:22:27.294Z,99931.09
2023-01-08T13:25:28.849Z,99913.59
2023-01-08T13:27:58.125Z,99912.81
2023-01-08T13:30:43.112Z,99939.75
2023-01-08T13:33:29.257Z,99936.28
2023-01-08T13:36:23.710Z,99914.56
2023-01-08T13:39:23.164Z,99923.16
2023-01-08T13:42:23.129Z,99926.50
2023-01-08T13:44:53.835Z,99922.06
2023-01-08T13:47:32.052Z,99917.69
2023-01-08T13:50:04.331Z,99883.00
2023-01-08T13:52:43.640Z,99902.13
2023-01-08T13:55:19.466Z,99867.34
2023-01-08T13:57:54.019Z,99871.66
2023-01-08T14:00:30.826Z,99905.63
2023-01-08T14:02:59.249Z,99895.19
2023-01-08T14:05:30.845Z,99870.75
2023-01-08T14:07:59.902Z,99884.63
2023-01-08T14:10:30.249Z,99847.22
2023-01-08T14:13:07.855Z,99857.75
2023-01-08T14:15:39.623Z,99872.53
2023-01-08T14:18:08.378Z,99844.75
2023-01-08T14:20:40.284Z,99852.66
2023-01-08T14:23:18.725Z,99860.41
2023-01-08T14:25:49.913Z,99852.56
2023-01-08T14:28:24.016Z,99804.66
2023-01-08T14:30:54.523Z,99823.06
2023-01-08T14:33:30.332Z,99796.03
2023-01-08T14:35:59.405Z,99840.41
2023-01-08T14:38:27.907Z,99843.06
2023-01-08T14:41:03.790Z,99836.13
2023-01-08T14:43:36.542Z,99838.72
2023-01-08T14:46:05.180Z,99830.88
2023-01-08T14:48:42.610Z,99806.59
2023-01-08T14:51:16.844Z,99827.47
2023-01-08T14:53:48.496Z,99829.22
2023-01-08T14:56:22.252Z,99817.03
2023-01-08T14:58:54.390Z,99782.19
2023-01-08T15:01:26.120Z,99763.00
2023-01-08T15:04:07.538Z,99769.09
2023-01-08T15:06:36.631Z,99798.75
2023-01-08T15:09:22.530Z,99772.63
2023-01-08T15:11:55.887Z,99782.22
2023-01-08T15:14:29.112Z,99808.41
2023-01-08T15:16:59.713Z,99766.59
2023-01-08T15:19:30.432Z,99810.13
2023-01-08T15:22:02.010Z,99812.78
2023-01-08T15:24:33.142Z,99804.94
2023-01-08T15:27:09.960Z,99805.81
2023-01-08T15:29:50.301Z,99790.13
2023-01-08T15:32:27.272Z,99767.47
2023-01-08T15:34:55.832Z,99762.25
2023-01-08T15:37:24.257Z,99797.09
2023-01-08T15:39:52.635Z,99799.69
2023-01-08T15:42:41.548Z,99793.59
2023-01-08T15:45:16.250Z,99737.81
2023-01-08T15:47:44.794Z,99777.91
2023-01-08T15:50:13.713Z,99723.91
2023-01-08T15:52:44.713Z,99762.25
2023-01-08T15:55:18.268Z,99791.84
2023-01-08T15:57:46.810Z,99790.09
2023-01-08T16:00:19.867Z,99771.75
2023-01-08T16:02:50.687Z,99757.75
2023-01-08T16:05:21.108Z,99765.44
2023-01-08T16:07:49.947Z,99776.72
2023-01-08T16:10:19.349Z,99792.50
2023-01-08T16:12:48.414Z,99823.00
2023-01-08T16:15:18.856Z,99804.00
2023-01-08T16:17:47.418Z,99806.59
2023-01-08T16:20:16.981Z,99773.53
2023-01-08T16:22:45.669Z,99771.78
2023-01-08T16:25:14.366Z,99799.72
2023-01-08T16:27:43.837Z,99785.78
2023-01-08T16:30:15.599Z,99752.69
2023-01-08T16:32:46.667Z,99791.00
2023-01-08T16:35:15.141Z,99741.34
2023-01-08T16:37:43.679Z,99719.56
2023-01-08T16:40:14.246Z,99784.88
2023-01-08T16:42:42.867Z,99763.13
2023-01-08T16:45:12.034Z,99777.06
2023-01-08T16:47:41.272Z,99733.50
2023-01-08T16:50:12.711Z,99762.22
2023-01-08T16:52:41.176Z,99755.25
2023-01-08T16:55:11.871Z,99751.78
2023-01-08T16:57:40.277Z,99736.97
2023-01-08T17:00:10.753Z,99754.38
2023-01-08T17:02:39.253Z,99712.56
2023-01-08T17:05:10.595Z,99743.00
2023-01-08T17:07:39.114Z,99737.78
2023-01-08T17:10:09.112Z,99657.72
2023-01-08T17:12:37.514Z,99727.34
2023-01-08T17:15:07.534Z,99724.72
2023-01-08T17:17:36.321Z,99723.84
2023-01-08T17:20:05.452Z,99664.69
2023-01-08T17:22:35.366Z,99695.13
2023-01-08T17:25:04.513Z,99705.59
2023-01-08T17:27:37.859Z,99703.88
2023-01-08T17:30:08.333Z,99679.47
2023-01-08T17:32:37.394Z,99682.06
2023-01-08T17:35:07.385Z,99642.03
2023-01-08T17:37:38.247Z,99661.19
2023-01-08T17:40:08.387Z,99673.34
2023-01-08T17:42:36.857Z,99689.03
2023-01-08T17:45:06.870Z,99637.72
2023-01-08T17:47:37.578Z,99678.59
2023-01-08T17:50:06.924Z,99645.56
2023-01-08T17:52:38.417Z,99635.13
2023-01-08T17:55:07.982Z,99646.41
2023-01-08T17:57:36.406Z,99676.81
2023-01-08T18:00:06.065Z,99660.28
2023-01-08T18:02:34.640Z,99661.13
2023-01-08T18:05:03.051Z,99675.88
2023-01-08T18:07:34.271Z,99666.31
2023-01-08T18:10:04.756Z,99661.06
2023-01-08T18:12:33.103Z,99607.13
2023-01-08T18:15:01.462Z,99656.69
2023-01-08T18:17:32.063Z,99596.69
2023-01-08T18:20:00.495Z,99632.38
2023-01-08T18:22:28.965Z,99631.56
2023-01-08T18:24:59.252Z,99626.34
2023-01-08T18:27:29.129Z,99638.56
2023-01-08T18:29:57.601Z,99637.72
2023-01-08T18:32:26.229Z,99628.13
2023-01-08T18:34:55.767Z,99599.47
2023-01-08T18:37:24.998Z,99622.91
2023-01-08T18:39:53.503Z,99628.19
2023-01-08T18:42:27.740Z,99634.28
2023-01-08T18:44:58.772Z,99594.19
2023-01-08T18:47:28.871Z,99597.69
2023-01-08T18:50:03.023Z,99593.38
2023-01-08T18:52:31.998Z,99589.84
2023-01-08T18:55:00.514Z,99613.34
2023-01-08T18:57:29.595Z,99573.34
2023-01-08T18:59:59.489Z,99590.69
2023-01-08T19:02:30.073Z,99561.13
2023-01-08T19:04:58.632Z,99553.31
2023-01-08T19:07:27.208Z,99597.66
2023-01-08T19:09:56.893Z,99541.97
2023-01-08T19:12:27.305Z,99571.50
2023-01-08T19:14:55.940Z,99546.28
2023-01-08T19:17:26.005Z,99566.31
2023-01-08T19:19:54.412Z,99524.56
2023-01-08T19:22:26.613Z,99508.94
2023-01-08T19:24:56.076Z,99561.94
2023-01-08T19:27:26.003Z,99562.00
2023-01-08T19:29:55.017Z,99545.44
2023-01-08T19:32:23.404Z,99548.09
2023-01-08T19:34:53.908Z,99557.63
2023-01-08T19:37:22.326Z,99542.81
2023-01-08T19:39:50.740Z,99551.53
2023-01-08T19:42:36.744Z,99543.69
2023-01-08T19:45:06.215Z,99525.44
2023-01-08T19:47:34.626Z,99547.16
2023-01-08T19:50:04.835Z,99533.22
2023-01-08T19:52:33.604Z,99532.34
2023-01-08T19:55:02.100Z,99518.41
2023-01-08T19:57:30.771Z,99518.41
2023-01-08T19:59:59.665Z,99507.19
2023-01-08T20:02:28.128Z,99518.50
2023-01-08T20:04:56.840Z,99519.38
2023-01-08T20:07:26.615Z,99517.63
2023-01-08T20:09:55.422Z,99502.88
2023-01-08T20:12:24.089Z,99475.94
2023-01-08T20:14:52.438Z,99508.97
2023-01-08T20:17:25.072Z,99519.38
2023-01-08T20:19:53.889Z,99476.81
2023-01-08T20:22:22.314Z,99508.97
2023-01-08T20:24:52.576Z,99389.88
2023-01-08T20:27:21.134Z,99510.72
2023-01-08T20:29:49.795Z,99497.66
2023-01-08T20:32:20.433Z,99498.53
2023-01-08T20:34:50.627Z,99513.28
2023-01-08T20:37:19.208Z,99507.19
2023-01-08T20:39:47.742Z,99505.47
2023-01-08T20:42:32.475Z,99506.34
2023-01-08T20:45:01.659Z,99496.75
2023-01-08T20:47:34.848Z,99504.59
2023-01-08T20:50:12.398Z,99464.63
2023-01-08T20:52:47.537Z,99492.44
2023-01-08T20:55:17.468Z,99492.44
2023-01-08T20:57:48.239Z,99453.31
2023-01-08T21:00:18.465Z,99462.88
2023-01-08T21:02:46.999Z,99472.44
2023-01-08T21:05:15.662Z,99488.97
2023-01-08T21:07:44.134Z,99468.94
2023-01-08T21:10:13.221Z,99450.72
2023-01-08T21:12:41.672Z,99488.94
2023-01-08T21:15:13.010Z,99472.47
2023-01-08T21:17:41.365Z,99474.19
2023-01-08T21:20:12.272Z,99479.38
2023-01-08T21:22:40.681Z,99470.69
2023-01-08T21:25:11.216Z,99426.31
2023-01-08T21:27:39.698Z,99454.09
2023-01-08T21:30:12.991Z,99433.22
2023-01-08T21:32:41.393Z,99455.81
2023-01-08T21:35:10.486Z,99455.81
2023-01-08T21:37:39.051Z,99435.78
2023-01-08T21:40:11.309Z,99449.75
2023-01-08T21:42:57.188Z,99465.44
2023-01-08T21:45:27.562Z,99471.50
2023-01-08T21:47:58.541Z,99444.59
2023-01-08T21:50:27.712Z,99480.25
2023-01-08T21:53:13.815Z,99488.09
2023-01-08T21:55:42.976Z,99441.13
2023-01-08T21:58:11.468Z,99482.00
2023-01-08T22:00:41.329Z,99519.41
2023-01-08T22:03:09.812Z,99512.44
2023-01-08T22:05:38.226Z,99519.41
2023-01-08T22:08:08.792Z,99514.19
2023-01-08T22:10:37.177Z,99508.97
2023-01-08T22:13:07.202Z,99482.03
2023-01-08T22:15:35.702Z,99468.06
2023-01-08T22:18:05.488Z,99488.97
2023-01-08T22:20:34.034Z,99492.44
2023-01-08T22:23:02.447Z,99477.66
2023-01-08T22:25:30.891Z,99475.94
2023-01-08T22:27:59.359Z,99469.84
2023-01-08T22:30:27.774Z,99475.03
2023-01-08T22:32:56.345Z,99400.31
2023-01-08T22:35:26.155Z,99468.94
2023-01-08T22:37:54.487Z,99469.81
2023-01-08T22:40:22.849Z,99474.19
2023-01-08T22:42:51.565Z,99416.84
2023-01-08T22:45:20.078Z,99446.38
2023-01-08T22:47:48.630Z,99477.66
2023-01-08T22:50:17.944Z,99470.69
2023-01-08T22:52:47.722Z,99463.75
2023-01-08T22:55:16.246Z,99488.97
2023-01-08T22:57:44.543Z,99498.53
2023-01-08T23:00:14.378Z,99492.44
2023-01-08T23:02:42.928Z,99502.81
2023-01-08T23:05:11.404Z,99500.22
2023-01-08T23:07:39.773Z,99505.44
2023-01-08T23:10:11.899Z,99502.78
2023-01-08T23:12:40.321Z,99511.47
2023-01-08T23:15:10.274Z,99508.94
2023-01-08T23:17:47.954Z,99517.56
2023-01-08T23:20:21.334Z,99475.78
2023-01-08T23:22:50.721Z,99480.97
2023-01-08T23:25:20.669Z,99536.59
2023-01-08T23:27:49.381Z,99535.72
2023-01-08T23:30:18.556Z,99492.16
2023-01-08T23:32:46.962Z,99526.00
2023-01-08T23:35:15.383Z,99548.63
2023-01-08T23:37:43.922Z,99552.91
2023-01-08T23:40:14.143Z,99547.63
2023-01-08T23:42:44.272Z,99531.91
2023-01-08T23:45:13.262Z,99507.56
2023-01-08T23:47:41.790Z,99553.72
2023-01-08T23:50:12.174Z,99564.94
2023-01-08T23:52:40.552Z,99564.88
2023-01-08T23:55:10.054Z,99557.16
2023-01-08T23:57:38.438Z,99552.78
